sensor_id;sensor_type;location;lat;lon;timestamp;P1;durP1;ratioP1;P2;durP2;ratioP2
69325;SDS011;56471;53.508;49.252;2023-02-18T00:00:24;13.25;;;7.78;;
69325;SDS011;56471;53.508;49.252;2023-02-18T00:02:51;13.45;;;7.43;;
69325;SDS011;56471;53.508;49.252;2023-02-18T00:05:19;14.63;;;7.97;;
69325;SDS011;56471;53.508;49.252;2023-02-18T00:07:48;12.80;;;8.00;;
69325;SDS011;56471;53.508;49.252;2023-02-18T00:10:14;15.93;;;8.48;;
69325;SDS011;56471;53.508;49.252;2023-02-18T00:12:46;13.98;;;7.97;;
69325;SDS011;56471;53.508;49.252;2023-02-18T00:15:12;13.77;;;7.80;;
69325;SDS011;56471;53.508;49.252;2023-02-18T00:17:38;14.38;;;7.90;;
69325;SDS011;56471;53.508;49.252;2023-02-18T00:20:04;13.95;;;7.78;;
69325;SDS011;56471;53.508;49.252;2023-02-18T00:22:33;15.57;;;8.43;;
69325;SDS011;56471;53.508;49.252;2023-02-18T00:24:59;15.63;;;9.10;;
69325;SDS011;56471;53.508;49.252;2023-02-18T00:27:24;14.35;;;8.38;;
69325;SDS011;56471;53.508;49.252;2023-02-18T00:29:50;15.35;;;8.10;;
69325;SDS011;56471;53.508;49.252;2023-02-18T00:32:16;13.05;;;7.78;;
69325;SDS011;56471;53.508;49.252;2023-02-18T00:34:41;14.27;;;8.48;;
69325;SDS011;56471;53.508;49.252;2023-02-18T00:37:07;14.85;;;8.23;;
69325;SDS011;56471;53.508;49.252;2023-02-18T00:39:33;16.52;;;8.38;;
69325;SDS011;56471;53.508;49.252;2023-02-18T00:41:58;14.95;;;8.25;;
69325;SDS011;56471;53.508;49.252;2023-02-18T00:44:24;14.30;;;8.13;;
69325;SDS011;56471;53.508;49.252;2023-02-18T00:46:49;14.15;;;8.10;;
69325;SDS011;56471;53.508;49.252;2023-02-18T00:49:15;15.13;;;7.70;;
69325;SDS011;56471;53.508;49.252;2023-02-18T00:51:42;17.88;;;8.15;;
69325;SDS011;56471;53.508;49.252;2023-02-18T00:54:08;13.50;;;7.43;;
69325;SDS011;56471;53.508;49.252;2023-02-18T00:56:34;15.77;;;7.88;;
69325;SDS011;56471;53.508;49.252;2023-02-18T00:58:59;12.30;;;7.38;;
69325;SDS011;56471;53.508;49.252;2023-02-18T01:01:25;12.43;;;7.53;;
69325;SDS011;56471;53.508;49.252;2023-02-18T01:03:52;13.57;;;7.78;;
69325;SDS011;56471;53.508;49.252;2023-02-18T01:06:17;14.68;;;7.90;;
69325;SDS011;56471;53.508;49.252;2023-02-18T01:08:43;12.82;;;7.32;;
69325;SDS011;56471;53.508;49.252;2023-02-18T01:11:10;14.13;;;7.65;;
69325;SDS011;56471;53.508;49.252;2023-02-18T01:13:37;13.75;;;7.93;;
69325;SDS011;56471;53.508;49.252;2023-02-18T01:16:03;14.80;;;7.85;;
69325;SDS011;56471;53.508;49.252;2023-02-18T01:18:29;14.68;;;7.72;;
69325;SDS011;56471;53.508;49.252;2023-02-18T01:20:55;13.00;;;7.68;;
69325;SDS011;56471;53.508;49.252;2023-02-18T01:23:21;14.95;;;8.23;;
69325;SDS011;56471;53.508;49.252;2023-02-18T01:25:47;11.68;;;7.45;;
69325;SDS011;56471;53.508;49.252;2023-02-18T01:28:13;13.43;;;7.40;;
69325;SDS011;56471;53.508;49.252;2023-02-18T01:30:39;14.63;;;8.05;;
69325;SDS011;56471;53.508;49.252;2023-02-18T01:33:06;13.60;;;8.15;;
69325;SDS011;56471;53.508;49.252;2023-02-18T01:35:32;14.70;;;8.05;;
69325;SDS011;56471;53.508;49.252;2023-02-18T01:37:58;15.63;;;8.50;;
69325;SDS011;56471;53.508;49.252;2023-02-18T01:40:25;14.88;;;8.15;;
69325;SDS011;56471;53.508;49.252;2023-02-18T01:42:52;12.63;;;8.23;;
69325;SDS011;56471;53.508;49.252;2023-02-18T01:50:34;15.45;;;8.18;;
69325;SDS011;56471;53.508;49.252;2023-02-18T01:53:03;13.80;;;7.82;;
69325;SDS011;56471;53.508;49.252;2023-02-18T01:55:29;13.48;;;7.60;;
69325;SDS011;56471;53.508;49.252;2023-02-18T01:57:55;14.48;;;7.68;;
69325;SDS011;56471;53.508;49.252;2023-02-18T02:00:21;14.80;;;7.45;;
69325;SDS011;56471;53.508;49.252;2023-02-18T02:02:47;13.20;;;7.50;;
69325;SDS011;56471;53.508;49.252;2023-02-18T02:05:15;14.05;;;7.63;;
69325;SDS011;56471;53.508;49.252;2023-02-18T02:07:42;13.60;;;7.35;;
69325;SDS011;56471;53.508;49.252;2023-02-18T02:10:10;14.55;;;8.13;;
69325;SDS011;56471;53.508;49.252;2023-02-18T02:15:05;12.05;;;7.30;;
69325;SDS011;56471;53.508;49.252;2023-02-18T02:17:58;13.85;;;7.60;;
69325;SDS011;56471;53.508;49.252;2023-02-18T02:29:36;14.18;;;8.02;;
69325;SDS011;56471;53.508;49.252;2023-02-18T02:32:40;15.18;;;7.57;;
69325;SDS011;56471;53.508;49.252;2023-02-18T02:35:20;13.57;;;7.50;;
69325;SDS011;56471;53.508;49.252;2023-02-18T02:40:29;13.00;;;7.43;;
69325;SDS011;56471;53.508;49.252;2023-02-18T02:51:17;12.70;;;6.97;;
69325;SDS011;56471;53.508;49.252;2023-02-18T02:54:13;12.90;;;7.63;;
69325;SDS011;56471;53.508;49.252;2023-02-18T02:56:44;14.57;;;7.50;;
69325;SDS011;56471;53.508;49.252;2023-02-18T02:59:21;13.55;;;7.20;;
69325;SDS011;56471;53.508;49.252;2023-02-18T03:01:53;12.32;;;6.90;;
69325;SDS011;56471;53.508;49.252;2023-02-18T03:10:03;12.63;;;7.03;;
69325;SDS011;56471;53.508;49.252;2023-02-18T03:12:42;12.57;;;6.80;;
69325;SDS011;56471;53.508;49.252;2023-02-18T03:20:52;13.27;;;7.05;;
69325;SDS011;56471;53.508;49.252;2023-02-18T03:23:24;13.05;;;6.95;;
69325;SDS011;56471;53.508;49.252;2023-02-18T03:25:54;14.40;;;7.38;;
69325;SDS011;56471;53.508;49.252;2023-02-18T03:28:21;13.95;;;7.43;;
69325;SDS011;56471;53.508;49.252;2023-02-18T03:31:12;14.52;;;7.40;;
69325;SDS011;56471;53.508;49.252;2023-02-18T03:33:49;12.90;;;7.28;;
69325;SDS011;56471;53.508;49.252;2023-02-18T03:36:20;14.18;;;7.10;;
69325;SDS011;56471;53.508;49.252;2023-02-18T03:38:55;16.25;;;7.75;;
69325;SDS011;56471;53.508;49.252;2023-02-18T03:41:24;14.10;;;7.18;;
69325;SDS011;56471;53.508;49.252;2023-02-18T03:43:58;13.32;;;7.30;;
69325;SDS011;56471;53.508;49.252;2023-02-18T03:46:26;13.10;;;7.30;;
69325;SDS011;56471;53.508;49.252;2023-02-18T03:48:53;14.57;;;7.70;;
69325;SDS011;56471;53.508;49.252;2023-02-18T03:51:18;14.68;;;7.80;;
69325;SDS011;56471;53.508;49.252;2023-02-18T03:53:45;13.07;;;7.13;;
69325;SDS011;56471;53.508;49.252;2023-02-18T03:56:10;15.45;;;8.30;;
69325;SDS011;56471;53.508;49.252;2023-02-18T03:58:36;16.33;;;8.52;;
69325;SDS011;56471;53.508;49.252;2023-02-18T04:01:02;14.95;;;8.02;;
69325;SDS011;56471;53.508;49.252;2023-02-18T04:03:28;14.90;;;8.43;;
69325;SDS011;56471;53.508;49.252;2023-02-18T04:05:55;15.32;;;8.45;;
69325;SDS011;56471;53.508;49.252;2023-02-18T04:08:20;16.27;;;8.20;;
69325;SDS011;56471;53.508;49.252;2023-02-18T04:10:46;17.83;;;8.68;;
69325;SDS011;56471;53.508;49.252;2023-02-18T04:13:12;14.70;;;8.40;;
69325;SDS011;56471;53.508;49.252;2023-02-18T04:15:38;15.52;;;8.15;;
69325;SDS011;56471;53.508;49.252;2023-02-18T04:18:06;14.63;;;8.60;;
69325;SDS011;56471;53.508;49.252;2023-02-18T04:20:32;18.33;;;8.85;;
69325;SDS011;56471;53.508;49.252;2023-02-18T04:23:01;15.75;;;8.77;;
69325;SDS011;56471;53.508;49.252;2023-02-18T04:25:33;16.58;;;9.18;;
69325;SDS011;56471;53.508;49.252;2023-02-18T04:27:59;18.25;;;8.93;;
69325;SDS011;56471;53.508;49.252;2023-02-18T04:30:25;17.10;;;9.25;;
69325;SDS011;56471;53.508;49.252;2023-02-18T04:32:53;16.38;;;9.40;;
69325;SDS011;56471;53.508;49.252;2023-02-18T04:35:18;18.45;;;9.27;;
69325;SDS011;56471;53.508;49.252;2023-02-18T04:37:44;17.95;;;9.43;;
69325;SDS011;56471;53.508;49.252;2023-02-18T04:40:10;21.42;;;10.18;;
69325;SDS011;56471;53.508;49.252;2023-02-18T04:42:36;19.48;;;9.60;;
69325;SDS011;56471;53.508;49.252;2023-02-18T04:45:02;18.38;;;9.88;;
69325;SDS011;56471;53.508;49.252;2023-02-18T04:47:31;18.00;;;9.68;;
69325;SDS011;56471;53.508;49.252;2023-02-18T04:49:57;20.63;;;10.20;;
69325;SDS011;56471;53.508;49.252;2023-02-18T04:52:26;21.17;;;9.93;;
69325;SDS011;56471;53.508;49.252;2023-02-18T04:54:54;19.08;;;9.93;;
69325;SDS011;56471;53.508;49.252;2023-02-18T04:57:20;18.67;;;9.50;;
69325;SDS011;56471;53.508;49.252;2023-02-18T04:59:45;19.45;;;9.98;;
69325;SDS011;56471;53.508;49.252;2023-02-18T05:02:11;20.38;;;10.15;;
69325;SDS011;56471;53.508;49.252;2023-02-18T05:04:37;21.17;;;10.48;;
69325;SDS011;56471;53.508;49.252;2023-02-18T05:07:02;23.15;;;10.80;;
69325;SDS011;56471;53.508;49.252;2023-02-18T05:09:28;16.90;;;9.27;;
69325;SDS011;56471;53.508;49.252;2023-02-18T05:11:54;18.52;;;9.65;;
69325;SDS011;56471;53.508;49.252;2023-02-18T05:14:19;18.83;;;9.35;;
69325;SDS011;56471;53.508;49.252;2023-02-18T05:16:45;18.92;;;8.82;;
69325;SDS011;56471;53.508;49.252;2023-02-18T05:19:14;16.17;;;8.15;;
69325;SDS011;56471;53.508;49.252;2023-02-18T05:21:40;15.73;;;8.65;;
69325;SDS011;56471;53.508;49.252;2023-02-18T05:24:06;14.57;;;8.35;;
69325;SDS011;56471;53.508;49.252;2023-02-18T05:26:32;15.80;;;7.97;;
69325;SDS011;56471;53.508;49.252;2023-02-18T05:28:58;12.55;;;7.78;;
69325;SDS011;56471;53.508;49.252;2023-02-18T05:31:24;13.77;;;7.70;;
69325;SDS011;56471;53.508;49.252;2023-02-18T05:33:50;15.02;;;7.30;;
69325;SDS011;56471;53.508;49.252;2023-02-18T05:36:16;15.60;;;7.85;;
69325;SDS011;56471;53.508;49.252;2023-02-18T05:38:41;16.77;;;7.38;;
69325;SDS011;56471;53.508;49.252;2023-02-18T05:41:10;14.00;;;7.50;;
69325;SDS011;56471;53.508;49.252;2023-02-18T05:43:35;15.50;;;7.95;;
69325;SDS011;56471;53.508;49.252;2023-02-18T05:46:21;15.80;;;7.65;;
69325;SDS011;56471;53.508;49.252;2023-02-18T05:48:47;12.40;;;7.65;;
69325;SDS011;56471;53.508;49.252;2023-02-18T05:51:13;13.63;;;7.55;;
69325;SDS011;56471;53.508;49.252;2023-02-18T05:53:39;14.57;;;7.47;;
69325;SDS011;56471;53.508;49.252;2023-02-18T05:56:05;14.65;;;7.30;;
69325;SDS011;56471;53.508;49.252;2023-02-18T05:58:31;13.35;;;7.65;;
69325;SDS011;56471;53.508;49.252;2023-02-18T06:00:57;13.82;;;7.95;;
69325;SDS011;56471;53.508;49.252;2023-02-18T06:03:22;17.40;;;8.75;;
69325;SDS011;56471;53.508;49.252;2023-02-18T06:05:49;16.30;;;8.07;;
69325;SDS011;56471;53.508;49.252;2023-02-18T06:08:15;15.32;;;8.15;;
69325;SDS011;56471;53.508;49.252;2023-02-18T06:10:41;15.23;;;8.00;;
69325;SDS011;56471;53.508;49.252;2023-02-18T06:13:06;13.68;;;7.78;;
69325;SDS011;56471;53.508;49.252;2023-02-18T06:15:32;13.90;;;7.90;;
69325;SDS011;56471;53.508;49.252;2023-02-18T06:17:58;13.70;;;8.27;;
69325;SDS011;56471;53.508;49.252;2023-02-18T06:20:23;14.80;;;7.80;;
69325;SDS011;56471;53.508;49.252;2023-02-18T06:22:49;13.20;;;7.70;;
69325;SDS011;56471;53.508;49.252;2023-02-18T06:25:15;13.48;;;7.43;;
69325;SDS011;56471;53.508;49.252;2023-02-18T06:27:41;14.25;;;7.43;;
69325;SDS011;56471;53.508;49.252;2023-02-18T06:30:07;12.20;;;6.93;;
69325;SDS011;56471;53.508;49.252;2023-02-18T06:32:33;14.50;;;7.53;;
69325;SDS011;56471;53.508;49.252;2023-02-18T06:34:59;14.38;;;7.70;;
69325;SDS011;56471;53.508;49.252;2023-02-18T06:37:24;13.70;;;7.50;;
69325;SDS011;56471;53.508;49.252;2023-02-18T06:39:50;13.15;;;7.40;;
69325;SDS011;56471;53.508;49.252;2023-02-18T06:42:16;14.60;;;7.13;;
69325;SDS011;56471;53.508;49.252;2023-02-18T06:44:41;14.02;;;7.43;;
69325;SDS011;56471;53.508;49.252;2023-02-18T06:47:07;15.40;;;7.60;;
69325;SDS011;56471;53.508;49.252;2023-02-18T06:49:33;12.57;;;7.38;;
69325;SDS011;56471;53.508;49.252;2023-02-18T06:52:00;13.57;;;7.68;;
69325;SDS011;56471;53.508;49.252;2023-02-18T06:54:26;12.20;;;7.35;;
69325;SDS011;56471;53.508;49.252;2023-02-18T06:56:51;12.63;;;6.93;;
69325;SDS011;56471;53.508;49.252;2023-02-18T06:59:18;12.23;;;6.93;;
69325;SDS011;56471;53.508;49.252;2023-02-18T07:01:43;14.02;;;7.00;;
69325;SDS011;56471;53.508;49.252;2023-02-18T07:04:09;11.95;;;7.00;;
69325;SDS011;56471;53.508;49.252;2023-02-18T07:06:35;12.70;;;7.35;;
69325;SDS011;56471;53.508;49.252;2023-02-18T07:09:00;12.48;;;6.90;;
69325;SDS011;56471;53.508;49.252;2023-02-18T07:11:26;13.38;;;7.03;;
69325;SDS011;56471;53.508;49.252;2023-02-18T07:13:52;12.45;;;7.13;;
69325;SDS011;56471;53.508;49.252;2023-02-18T07:16:17;13.35;;;6.88;;
69325;SDS011;56471;53.508;49.252;2023-02-18T07:18:43;14.13;;;7.38;;
69325;SDS011;56471;53.508;49.252;2023-02-18T07:21:09;17.08;;;7.32;;
69325;SDS011;56471;53.508;49.252;2023-02-18T07:23:35;11.68;;;6.75;;
69325;SDS011;56471;53.508;49.252;2023-02-18T07:26:07;12.10;;;6.95;;
69325;SDS011;56471;53.508;49.252;2023-02-18T07:28:35;11.32;;;6.97;;
69325;SDS011;56471;53.508;49.252;2023-02-18T07:31:00;11.13;;;6.70;;
69325;SDS011;56471;53.508;49.252;2023-02-18T07:33:27;12.18;;;6.70;;
69325;SDS011;56471;53.508;49.252;2023-02-18T07:35:53;12.77;;;6.78;;
69325;SDS011;56471;53.508;49.252;2023-02-18T07:38:21;11.00;;;6.68;;
69325;SDS011;56471;53.508;49.252;2023-02-18T07:40:48;14.00;;;6.80;;
69325;SDS011;56471;53.508;49.252;2023-02-18T07:43:14;13.50;;;7.00;;
69325;SDS011;56471;53.508;49.252;2023-02-18T07:45:40;11.13;;;6.95;;
69325;SDS011;56471;53.508;49.252;2023-02-18T07:48:06;12.23;;;6.70;;
69325;SDS011;56471;53.508;49.252;2023-02-18T07:50:31;13.85;;;6.95;;
69325;SDS011;56471;53.508;49.252;2023-02-18T07:53:03;12.40;;;6.93;;
69325;SDS011;56471;53.508;49.252;2023-02-18T07:55:31;14.32;;;7.43;;
69325;SDS011;56471;53.508;49.252;2023-02-18T07:58:15;13.25;;;7.32;;
69325;SDS011;56471;53.508;49.252;2023-02-18T08:00:46;13.23;;;7.50;;
69325;SDS011;56471;53.508;49.252;2023-02-18T08:03:13;12.90;;;7.60;;
69325;SDS011;56471;53.508;49.252;2023-02-18T08:05:42;14.60;;;7.32;;
69325;SDS011;56471;53.508;49.252;2023-02-18T08:08:12;14.32;;;7.40;;
69325;SDS011;56471;53.508;49.252;2023-02-18T08:10:38;15.43;;;7.88;;
69325;SDS011;56471;53.508;49.252;2023-02-18T08:13:04;15.20;;;7.65;;
69325;SDS011;56471;53.508;49.252;2023-02-18T08:15:30;15.90;;;7.53;;
69325;SDS011;56471;53.508;49.252;2023-02-18T08:17:55;13.32;;;7.85;;
69325;SDS011;56471;53.508;49.252;2023-02-18T08:20:21;14.45;;;8.30;;
69325;SDS011;56471;53.508;49.252;2023-02-18T08:22:47;14.52;;;7.47;;
69325;SDS011;56471;53.508;49.252;2023-02-18T08:25:12;12.15;;;7.20;;
69325;SDS011;56471;53.508;49.252;2023-02-18T08:27:38;12.30;;;7.45;;
69325;SDS011;56471;53.508;49.252;2023-02-18T08:30:04;13.07;;;7.63;;
69325;SDS011;56471;53.508;49.252;2023-02-18T08:32:30;12.07;;;7.00;;
69325;SDS011;56471;53.508;49.252;2023-02-18T08:34:55;11.85;;;6.60;;
69325;SDS011;56471;53.508;49.252;2023-02-18T08:37:21;12.77;;;7.35;;
69325;SDS011;56471;53.508;49.252;2023-02-18T08:39:47;10.63;;;6.47;;
69325;SDS011;56471;53.508;49.252;2023-02-18T08:42:13;10.70;;;6.55;;
69325;SDS011;56471;53.508;49.252;2023-02-18T08:44:39;12.45;;;6.95;;
69325;SDS011;56471;53.508;49.252;2023-02-18T08:47:05;11.65;;;6.68;;
69325;SDS011;56471;53.508;49.252;2023-02-18T08:49:30;11.07;;;6.47;;
69325;SDS011;56471;53.508;49.252;2023-02-18T08:51:56;10.82;;;6.50;;
69325;SDS011;56471;53.508;49.252;2023-02-18T08:54:22;10.98;;;6.93;;
69325;SDS011;56471;53.508;49.252;2023-02-18T08:56:47;11.43;;;6.68;;
69325;SDS011;56471;53.508;49.252;2023-02-18T08:59:13;12.98;;;6.80;;
69325;SDS011;56471;53.508;49.252;2023-02-18T09:01:39;11.90;;;7.25;;
69325;SDS011;56471;53.508;49.252;2023-02-18T09:04:04;13.55;;;7.38;;
69325;SDS011;56471;53.508;49.252;2023-02-18T09:06:30;11.27;;;6.32;;
69325;SDS011;56471;53.508;49.252;2023-02-18T09:08:56;12.98;;;7.55;;
69325;SDS011;56471;53.508;49.252;2023-02-18T09:11:21;11.05;;;6.85;;
69325;SDS011;56471;53.508;49.252;2023-02-18T09:13:47;11.55;;;6.53;;
69325;SDS011;56471;53.508;49.252;2023-02-18T09:16:16;11.95;;;6.57;;
69325;SDS011;56471;53.508;49.252;2023-02-18T09:18:43;12.95;;;7.10;;
69325;SDS011;56471;53.508;49.252;2023-02-18T09:21:10;12.27;;;7.00;;
69325;SDS011;56471;53.508;49.252;2023-02-18T09:23:37;11.20;;;6.68;;
69325;SDS011;56471;53.508;49.252;2023-02-18T09:26:07;13.57;;;7.15;;
69325;SDS011;56471;53.508;49.252;2023-02-18T09:28:34;13.90;;;7.32;;
69325;SDS011;56471;53.508;49.252;2023-02-18T09:31:04;12.48;;;7.28;;
69325;SDS011;56471;53.508;49.252;2023-02-18T09:33:30;15.98;;;7.45;;
69325;SDS011;56471;53.508;49.252;2023-02-18T09:35:56;13.18;;;7.43;;
69325;SDS011;56471;53.508;49.252;2023-02-18T09:38:21;17.70;;;7.57;;
69325;SDS011;56471;53.508;49.252;2023-02-18T09:40:48;14.10;;;7.90;;
69325;SDS011;56471;53.508;49.252;2023-02-18T09:43:38;14.98;;;7.95;;
69325;SDS011;56471;53.508;49.252;2023-02-18T09:46:18;11.77;;;7.13;;
69325;SDS011;56471;53.508;49.252;2023-02-18T09:48:45;14.15;;;7.68;;
69325;SDS011;56471;53.508;49.252;2023-02-18T09:51:12;12.65;;;7.60;;
69325;SDS011;56471;53.508;49.252;2023-02-18T09:53:40;12.40;;;7.30;;
69325;SDS011;56471;53.508;49.252;2023-02-18T09:56:10;14.70;;;8.00;;
69325;SDS011;56471;53.508;49.252;2023-02-18T09:58:39;14.55;;;7.80;;
69325;SDS011;56471;53.508;49.252;2023-02-18T10:01:29;12.23;;;7.18;;
69325;SDS011;56471;53.508;49.252;2023-02-18T10:04:02;12.70;;;7.35;;
69325;SDS011;56471;53.508;49.252;2023-02-18T10:06:31;15.13;;;8.15;;
69325;SDS011;56471;53.508;49.252;2023-02-18T10:08:59;15.70;;;8.70;;
69325;SDS011;56471;53.508;49.252;2023-02-18T10:13:55;15.40;;;7.88;;
69325;SDS011;56471;53.508;49.252;2023-02-18T10:16:23;16.30;;;8.35;;
69325;SDS011;56471;53.508;49.252;2023-02-18T10:18:50;18.38;;;8.43;;
69325;SDS011;56471;53.508;49.252;2023-02-18T10:21:20;15.05;;;8.48;;
69325;SDS011;56471;53.508;49.252;2023-02-18T10:26:49;16.25;;;9.05;;
69325;SDS011;56471;53.508;49.252;2023-02-18T10:29:16;16.40;;;9.07;;
69325;SDS011;56471;53.508;49.252;2023-02-18T10:31:44;16.20;;;9.48;;
69325;SDS011;56471;53.508;49.252;2023-02-18T10:34:18;15.32;;;9.00;;
69325;SDS011;56471;53.508;49.252;2023-02-18T10:42:23;17.67;;;9.13;;
69325;SDS011;56471;53.508;49.252;2023-02-18T10:50:34;15.95;;;7.97;;
69325;SDS011;56471;53.508;49.252;2023-02-18T10:53:46;14.68;;;8.15;;
69325;SDS011;56471;53.508;49.252;2023-02-18T10:56:07;13.77;;;7.80;;
69325;SDS011;56471;53.508;49.252;2023-02-18T11:01:00;16.77;;;8.82;;
69325;SDS011;56471;53.508;49.252;2023-02-18T11:09:53;16.02;;;8.38;;
69325;SDS011;56471;53.508;49.252;2023-02-18T11:12:24;15.27;;;8.05;;
69325;SDS011;56471;53.508;49.252;2023-02-18T11:15:20;15.98;;;8.77;;
69325;SDS011;56471;53.508;49.252;2023-02-18T11:17:49;15.35;;;8.57;;
69325;SDS011;56471;53.508;49.252;2023-02-18T11:25:30;15.93;;;9.00;;
69325;SDS011;56471;53.508;49.252;2023-02-18T11:30:43;16.02;;;8.93;;
69325;SDS011;56471;53.508;49.252;2023-02-18T11:33:18;16.10;;;8.85;;
69325;SDS011;56471;53.508;49.252;2023-02-18T11:36:01;17.00;;;9.48;;
69325;SDS011;56471;53.508;49.252;2023-02-18T11:38:34;14.60;;;8.40;;
69325;SDS011;56471;53.508;49.252;2023-02-18T11:41:12;15.73;;;9.02;;
69325;SDS011;56471;53.508;49.252;2023-02-18T11:43:42;14.50;;;8.25;;
69325;SDS011;56471;53.508;49.252;2023-02-18T11:46:19;14.10;;;8.18;;
69325;SDS011;56471;53.508;49.252;2023-02-18T11:48:47;15.60;;;8.45;;
69325;SDS011;56471;53.508;49.252;2023-02-18T11:51:14;16.13;;;8.60;;
69325;SDS011;56471;53.508;49.252;2023-02-18T11:54:21;14.20;;;8.57;;
69325;SDS011;56471;53.508;49.252;2023-02-18T11:56:42;13.82;;;8.32;;
69325;SDS011;56471;53.508;49.252;2023-02-18T11:59:19;19.60;;;9.63;;
69325;SDS011;56471;53.508;49.252;2023-02-18T12:01:47;15.25;;;8.93;;
69325;SDS011;56471;53.508;49.252;2023-02-18T12:04:17;16.50;;;8.73;;
69325;SDS011;56471;53.508;49.252;2023-02-18T12:06:50;15.10;;;8.52;;
69325;SDS011;56471;53.508;49.252;2023-02-18T12:09:28;14.70;;;8.25;;
69325;SDS011;56471;53.508;49.252;2023-02-18T12:12:05;15.60;;;8.70;;
69325;SDS011;56471;53.508;49.252;2023-02-18T12:14:35;17.05;;;8.68;;
69325;SDS011;56471;53.508;49.252;2023-02-18T12:31:08;15.85;;;8.95;;
69325;SDS011;56471;53.508;49.252;2023-02-18T12:48:13;19.02;;;10.35;;
69325;SDS011;56471;53.508;49.252;2023-02-18T12:50:55;20.23;;;10.95;;
69325;SDS011;56471;53.508;49.252;2023-02-18T12:53:36;19.77;;;11.23;;
69325;SDS011;56471;53.508;49.252;2023-02-18T13:03:52;19.83;;;10.98;;
69325;SDS011;56471;53.508;49.252;2023-02-18T13:09:08;20.98;;;11.25;;
69325;SDS011;56471;53.508;49.252;2023-02-18T13:14:17;21.98;;;12.02;;
69325;SDS011;56471;53.508;49.252;2023-02-18T13:16:47;23.63;;;12.68;;
69325;SDS011;56471;53.508;49.252;2023-02-18T13:21:48;23.52;;;12.93;;
69325;SDS011;56471;53.508;49.252;2023-02-18T13:24:35;24.85;;;13.27;;
69325;SDS011;56471;53.508;49.252;2023-02-18T13:32:32;1162.63;;;700.25;;
69325;SDS011;56471;53.508;49.252;2023-02-18T13:37:42;606.63;;;381.30;;
69325;SDS011;56471;53.508;49.252;2023-02-18T13:40:37;492.38;;;300.10;;
69325;SDS011;56471;53.508;49.252;2023-02-18T13:43:20;403.85;;;230.82;;
69325;SDS011;56471;53.508;49.252;2023-02-18T13:46:11;351.52;;;191.77;;
69325;SDS011;56471;53.508;49.252;2023-02-18T13:51:10;232.95;;;122.65;;
69325;SDS011;56471;53.508;49.252;2023-02-18T13:53:38;188.57;;;99.40;;
69325;SDS011;56471;53.508;49.252;2023-02-18T13:56:18;156.50;;;79.72;;
69325;SDS011;56471;53.508;49.252;2023-02-18T13:59:14;131.50;;;65.73;;
69325;SDS011;56471;53.508;49.252;2023-02-18T14:01:45;110.90;;;54.13;;
69325;SDS011;56471;53.508;49.252;2023-02-18T14:07:23;81.40;;;37.78;;
69325;SDS011;56471;53.508;49.252;2023-02-18T14:09:50;73.57;;;32.55;;
69325;SDS011;56471;53.508;49.252;2023-02-18T14:14:55;49.72;;;24.00;;
69325;SDS011;56471;53.508;49.252;2023-02-18T14:27:33;569.33;;;351.67;;
69325;SDS011;56471;53.508;49.252;2023-02-18T14:30:43;486.38;;;295.17;;
69325;SDS011;56471;53.508;49.252;2023-02-18T14:32:55;391.33;;;218.10;;
69325;SDS011;56471;53.508;49.252;2023-02-18T14:43:55;183.50;;;93.35;;
69325;SDS011;56471;53.508;49.252;2023-02-18T14:49:45;129.57;;;64.90;;
69325;SDS011;56471;53.508;49.252;2023-02-18T14:54:57;91.13;;;44.25;;
69325;SDS011;56471;53.508;49.252;2023-02-18T14:57:48;84.50;;;39.85;;
69325;SDS011;56471;53.508;49.252;2023-02-18T15:00:26;71.13;;;32.17;;
69325;SDS011;56471;53.508;49.252;2023-02-18T15:02:56;65.38;;;30.30;;
69325;SDS011;56471;53.508;49.252;2023-02-18T15:05:24;54.67;;;25.00;;
69325;SDS011;56471;53.508;49.252;2023-02-18T15:13:22;40.90;;;19.50;;
69325;SDS011;56471;53.508;49.252;2023-02-18T15:16:38;40.80;;;19.92;;
69325;SDS011;56471;53.508;49.252;2023-02-18T15:18:55;39.67;;;20.00;;
69325;SDS011;56471;53.508;49.252;2023-02-18T15:21:24;35.85;;;18.05;;
69325;SDS011;56471;53.508;49.252;2023-02-18T15:23:53;37.47;;;18.73;;
69325;SDS011;56471;53.508;49.252;2023-02-18T15:26:19;40.63;;;20.67;;
69325;SDS011;56471;53.508;49.252;2023-02-18T15:28:59;41.78;;;20.60;;
69325;SDS011;56471;53.508;49.252;2023-02-18T15:31:28;40.95;;;20.38;;
69325;SDS011;56471;53.508;49.252;2023-02-18T15:33:55;35.53;;;19.58;;
69325;SDS011;56471;53.508;49.252;2023-02-18T15:36:21;34.38;;;18.67;;
69325;SDS011;56471;53.508;49.252;2023-02-18T15:38:50;35.75;;;18.73;;
69325;SDS011;56471;53.508;49.252;2023-02-18T15:41:16;30.83;;;16.95;;
69325;SDS011;56471;53.508;49.252;2023-02-18T15:43:55;32.10;;;17.25;;
69325;SDS011;56471;53.508;49.252;2023-02-18T15:46:28;31.15;;;16.98;;
69325;SDS011;56471;53.508;49.252;2023-02-18T15:48:55;28.67;;;16.25;;
69325;SDS011;56471;53.508;49.252;2023-02-18T15:51:27;28.15;;;16.02;;
69325;SDS011;56471;53.508;49.252;2023-02-18T15:53:58;27.75;;;14.50;;
69325;SDS011;56471;53.508;49.252;2023-02-18T15:56:30;24.73;;;13.63;;
69325;SDS011;56471;53.508;49.252;2023-02-18T15:59:08;26.98;;;13.40;;
69325;SDS011;56471;53.508;49.252;2023-02-18T16:01:37;23.35;;;11.95;;
69325;SDS011;56471;53.508;49.252;2023-02-18T16:04:04;19.08;;;10.95;;
69325;SDS011;56471;53.508;49.252;2023-02-18T16:06:34;19.88;;;10.93;;
69325;SDS011;56471;53.508;49.252;2023-02-18T16:09:10;19.10;;;10.57;;
69325;SDS011;56471;53.508;49.252;2023-02-18T16:11:42;19.67;;;10.20;;
69325;SDS011;56471;53.508;49.252;2023-02-18T16:14:21;18.08;;;9.90;;
69325;SDS011;56471;53.508;49.252;2023-02-18T16:17:05;16.73;;;9.75;;
69325;SDS011;56471;53.508;49.252;2023-02-18T16:22:24;18.92;;;9.32;;
69325;SDS011;56471;53.508;49.252;2023-02-18T16:24:54;18.38;;;9.70;;
69325;SDS011;56471;53.508;49.252;2023-02-18T16:27:26;16.25;;;8.85;;
69325;SDS011;56471;53.508;49.252;2023-02-18T16:29:58;17.20;;;8.80;;
69325;SDS011;56471;53.508;49.252;2023-02-18T16:32:27;16.98;;;9.35;;
69325;SDS011;56471;53.508;49.252;2023-02-18T16:34:52;18.02;;;9.07;;
69325;SDS011;56471;53.508;49.252;2023-02-18T16:37:18;17.17;;;9.40;;
69325;SDS011;56471;53.508;49.252;2023-02-18T16:40:02;18.10;;;8.70;;
69325;SDS011;56471;53.508;49.252;2023-02-18T16:42:45;18.10;;;9.43;;
69325;SDS011;56471;53.508;49.252;2023-02-18T16:45:11;17.63;;;9.25;;
69325;SDS011;56471;53.508;49.252;2023-02-18T16:47:37;16.90;;;9.32;;
69325;SDS011;56471;53.508;49.252;2023-02-18T16:50:04;17.60;;;10.02;;
69325;SDS011;56471;53.508;49.252;2023-02-18T16:52:31;19.80;;;10.68;;
69325;SDS011;56471;53.508;49.252;2023-02-18T16:54:56;18.13;;;9.70;;
69325;SDS011;56471;53.508;49.252;2023-02-18T16:57:22;17.90;;;10.02;;
69325;SDS011;56471;53.508;49.252;2023-02-18T16:59:48;20.38;;;10.82;;
69325;SDS011;56471;53.508;49.252;2023-02-18T17:02:20;17.05;;;9.35;;
69325;SDS011;56471;53.508;49.252;2023-02-18T17:04:46;17.05;;;9.63;;
69325;SDS011;56471;53.508;49.252;2023-02-18T17:07:12;21.33;;;9.23;;
69325;SDS011;56471;53.508;49.252;2023-02-18T17:09:38;17.30;;;9.63;;
69325;SDS011;56471;53.508;49.252;2023-02-18T17:12:04;17.10;;;9.60;;
69325;SDS011;56471;53.508;49.252;2023-02-18T17:14:30;17.23;;;8.98;;
69325;SDS011;56471;53.508;49.252;2023-02-18T17:16:56;18.50;;;9.27;;